Time;durP1;ratioP1;P1;durP2;ratioP2;P2;SDS_P1;SDS_P2;PMS_P1;PMS_P2;Temp;Humidity;BMP_temperature;BMP_pressure;BME280_temperature;BME280_humidity;BME280_pressure;Samples;Min_cycle;Max_cycle;Signal;HPM_P1;HPM_P2
2021/09/24 00:00:35;;;;;;;9.90;3.25;;;14.80;99.90;;;;;;2620448;47;20277;-74
2021/09/24 00:03:04;;;;;;;10.18;3.03;;;14.80;99.90;;;;;;2620283;47;20153;-73
2021/09/24 00:05:32;;;;;;;6.13;2.50;;;14.80;99.90;;;;;;2619325;54;20237;-73
2021/09/24 00:08:04;;;;;;;12.23;3.33;;;14.80;99.90;;;;;;2619570;47;20701;-73
2021/09/24 00:10:33;;;;;;;14.40;3.05;;;14.70;99.90;;;;;;2620216;54;20154;-73
2021/09/24 00:13:02;;;;;;;9.95;2.95;;;14.80;99.90;;;;;;2619823;54;20168;-73
2021/09/24 00:15:30;;;;;;;8.23;3.15;;;14.80;99.90;;;;;;2619411;54;20149;-73
2021/09/24 00:17:59;;;;;;;9.10;3.08;;;14.70;99.90;;;;;;2620326;47;20794;-74
2021/09/24 00:20:28;;;;;;;10.95;2.90;;;14.70;99.90;;;;;;2619769;54;20160;-73
2021/09/24 00:22:57;;;;;;;10.48;3.60;;;14.60;99.90;;;;;;2620016;54;20679;-73
2021/09/24 00:25:29;;;;;;;12.15;3.50;;;14.40;99.90;;;;;;2619895;47;20211;-73
2021/09/24 00:27:59;;;;;;;11.57;2.65;;;14.50;99.90;;;;;;2620219;47;20172;-73
2021/09/24 00:30:28;;;;;;;12.88;3.00;;;14.60;99.90;;;;;;2619675;47;20184;-72
2021/09/24 00:32:57;;;;;;;11.27;3.10;;;14.60;99.90;;;;;;2620248;39;20578;-73
2021/09/24 00:35:26;;;;;;;14.20;3.78;;;14.50;99.90;;;;;;2619614;54;20153;-73
2021/09/24 00:38:01;;;;;;;6.80;2.58;;;14.60;99.90;;;;;;2620082;50;20160;-73
2021/09/24 00:40:34;;;;;;;12.15;2.80;;;14.60;99.90;;;;;;2619754;54;20160;-73
2021/09/24 00:43:04;;;;;;;10.70;3.72;;;14.50;99.90;;;;;;2619865;54;20152;-74
2021/09/24 00:45:33;;;;;;;8.93;2.28;;;14.50;99.90;;;;;;2618842;46;20169;-75
2021/09/24 00:48:02;;;;;;;9.60;3.25;;;14.50;99.90;;;;;;2618471;47;20177;-74
2021/09/24 00:50:31;;;;;;;16.13;3.50;;;14.60;99.90;;;;;;2619261;47;20152;-73
2021/09/24 00:53:01;;;;;;;14.00;3.85;;;14.70;99.90;;;;;;2618772;47;20157;-73
2021/09/24 00:55:32;;;;;;;12.80;3.28;;;14.50;99.90;;;;;;2620446;31;20630;-73
2021/09/24 00:58:01;;;;;;;8.93;3.05;;;14.50;99.90;;;;;;2619923;47;20176;-73
2021/09/24 01:00:30;;;;;;;10.63;3.80;;;14.60;99.90;;;;;;2619514;54;20153;-74
2021/09/24 01:02:59;;;;;;;8.75;2.95;;;14.50;99.90;;;;;;2619766;47;20679;-73
2021/09/24 01:05:29;;;;;;;8.10;3.03;;;14.50;99.90;;;;;;2619452;47;20697;-73
2021/09/24 01:07:58;;;;;;;5.63;2.95;;;14.60;99.90;;;;;;2620709;39;20594;-74
2021/09/24 01:10:27;;;;;;;8.05;3.70;;;14.50;99.90;;;;;;2619659;47;20157;-74
2021/09/24 01:12:59;;;;;;;7.55;2.75;;;14.40;99.90;;;;;;2620105;54;20138;-73
2021/09/24 01:15:28;;;;;;;10.73;2.97;;;14.30;99.90;;;;;;2619947;46;20145;-73
2021/09/24 01:17:56;;;;;;;8.57;3.13;;;14.20;99.90;;;;;;2619571;54;20182;-73
2021/09/24 01:20:26;;;;;;;10.60;2.83;;;14.30;99.90;;;;;;2619776;54;20157;-73
2021/09/24 01:22:57;;;;;;;10.02;4.30;;;14.10;99.90;;;;;;2619486;54;20169;-73
2021/09/24 01:25:26;;;;;;;8.55;2.47;;;14.20;99.90;;;;;;2619421;47;20154;-74
2021/09/24 01:27:56;;;;;;;14.48;3.70;;;14.10;99.90;;;;;;2620066;47;20707;-73
2021/09/24 01:30:25;;;;;;;12.27;3.22;;;14.20;99.90;;;;;;2619669;47;20161;-73
2021/09/24 01:32:54;;;;;;;8.00;3.00;;;14.20;99.90;;;;;;2619911;54;20141;-73
2021/09/24 01:35:23;;;;;;;7.28;2.80;;;14.00;99.90;;;;;;2619259;47;20275;-73
2021/09/24 01:37:52;;;;;;;8.00;3.08;;;14.00;99.90;;;;;;2619400;54;20179;-73
2021/09/24 01:40:24;;;;;;;9.45;3.45;;;14.00;99.90;;;;;;2620187;39;20569;-73
2021/09/24 01:42:55;;;;;;;8.65;3.50;;;14.00;99.90;;;;;;2619888;54;20171;-73
2021/09/24 01:45:24;;;;;;;9.10;3.00;;;14.00;99.90;;;;;;2619559;54;20171;-73
2021/09/24 01:47:53;;;;;;;11.27;3.20;;;14.00;99.90;;;;;;2619579;54;20556;-73
2021/09/24 01:50:22;;;;;;;8.13;3.28;;;13.90;99.90;;;;;;2619685;47;20160;-73
2021/09/24 01:52:51;;;;;;;10.10;3.50;;;14.00;99.90;;;;;;2619902;47;20167;-74
2021/09/24 01:55:20;;;;;;;12.85;2.95;;;14.00;99.90;;;;;;2619261;47;20153;-73
2021/09/24 01:57:51;;;;;;;15.13;3.42;;;13.80;99.90;;;;;;2619583;54;20169;-73
2021/09/24 02:00:20;;;;;;;11.40;4.28;;;13.80;99.90;;;;;;2619576;47;20161;-73
2021/09/24 02:02:49;;;;;;;9.63;3.53;;;13.80;99.90;;;;;;2619464;51;20144;-74
2021/09/24 02:05:18;;;;;;;6.40;2.70;;;13.80;99.90;;;;;;2618351;54;20149;-73
2021/09/24 02:07:47;;;;;;;11.88;2.65;;;13.80;99.90;;;;;;2619423;54;20185;-73
2021/09/24 02:10:16;;;;;;;11.07;4.15;;;13.70;99.90;;;;;;2619747;47;20160;-73
2021/09/24 02:12:45;;;;;;;11.13;2.58;;;13.70;99.90;;;;;;2619826;39;20584;-74
2021/09/24 02:15:16;;;;;;;15.88;2.50;;;13.70;99.90;;;;;;2622097;47;20725;-74
2021/09/24 02:17:45;;;;;;;7.40;2.90;;;13.80;99.90;;;;;;2636718;39;20727;-74
2021/09/24 02:20:14;;;;;;;8.73;3.90;;;13.90;99.90;;;;;;2624511;47;20153;-73
2021/09/24 02:22:43;;;;;;;14.93;3.00;;;13.90;99.90;;;;;;2619404;47;20149;-73
2021/09/24 02:25:13;;;;;;;9.48;3.83;;;13.90;99.90;;;;;;2618912;54;20158;-73
2021/09/24 02:27:42;;;;;;;14.98;3.60;;;13.80;99.90;;;;;;2619281;54;20184;-74
2021/09/24 02:30:12;;;;;;;11.48;3.20;;;13.90;99.90;;;;;;2620318;39;20570;-73
2021/09/24 02:32:43;;;;;;;10.05;3.22;;;14.00;99.90;;;;;;2619610;47;20157;-74
2021/09/24 02:35:12;;;;;;;10.38;3.70;;;14.00;99.90;;;;;;2619125;47;20729;-73
2021/09/24 02:37:41;;;;;;;7.93;3.22;;;13.90;99.90;;;;;;2619812;39;20574;-74
2021/09/24 02:40:11;;;;;;;9.73;3.70;;;13.90;99.90;;;;;;2619312;46;20171;-73
2021/09/24 02:42:40;;;;;;;13.20;2.78;;;13.80;99.90;;;;;;2619242;46;20168;-73
2021/09/24 02:45:10;;;;;;;16.70;3.05;;;13.70;99.90;;;;;;2619917;39;20657;-73
2021/09/24 02:47:38;;;;;;;12.93;2.83;;;13.70;99.90;;;;;;2619321;47;20176;-73
2021/09/24 02:50:12;;;;;;;15.15;4.00;;;13.80;99.90;;;;;;2619515;54;20708;-73
2021/09/24 02:52:41;;;;;;;9.23;3.88;;;13.90;99.90;;;;;;2619830;39;20579;-73
2021/09/24 02:55:11;;;;;;;9.30;3.33;;;13.80;99.90;;;;;;2619019;47;20738;-73
2021/09/24 02:57:40;;;;;;;8.27;3.35;;;13.90;99.90;;;;;;2619305;47;20698;-73
2021/09/24 03:00:10;;;;;;;12.25;2.88;;;13.90;99.90;;;;;;2619824;54;20146;-73
2021/09/24 03:02:39;;;;;;;9.80;3.70;;;13.80;99.90;;;;;;2619397;54;20618;-73
2021/09/24 03:05:12;;;;;;;12.77;3.35;;;13.80;99.90;;;;;;2618906;47;20253;-73
2021/09/24 03:07:41;;;;;;;13.95;3.53;;;14.00;99.90;;;;;;2618949;47;20184;-73
2021/09/24 03:10:11;;;;;;;11.38;3.78;;;13.90;99.90;;;;;;2619133;47;20150;-73
2021/09/24 03:12:40;;;;;;;10.85;2.72;;;13.90;99.90;;;;;;2619103;54;20333;-73
2021/09/24 03:15:12;;;;;;;11.23;3.17;;;13.90;99.90;;;;;;2618763;47;20273;-73
2021/09/24 03:17:41;;;;;;;10.05;4.03;;;13.90;99.90;;;;;;2618910;47;20702;-74
2021/09/24 03:20:14;;;;;;;14.93;3.22;;;13.80;99.90;;;;;;2619035;47;20157;-74
2021/09/24 03:22:44;;;;;;;11.23;3.35;;;13.70;99.90;;;;;;2618922;54;20199;-73
2021/09/24 03:25:13;;;;;;;8.27;2.72;;;13.80;99.90;;;;;;2618794;47;20695;-73
2021/09/24 03:27:42;;;;;;;7.53;2.42;;;13.80;99.90;;;;;;2618987;54;20188;-73
2021/09/24 03:30:13;;;;;;;10.50;3.22;;;13.70;99.90;;;;;;2619107;54;20149;-74
2021/09/24 03:32:42;;;;;;;14.05;2.85;;;13.70;99.90;;;;;;2618852;54;20160;-74
2021/09/24 03:35:15;;;;;;;10.43;2.88;;;13.80;99.90;;;;;;2618424;47;20214;-74
2021/09/24 03:37:44;;;;;;;12.77;4.00;;;13.90;99.90;;;;;;2618772;47;20173;-74
2021/09/24 03:40:14;;;;;;;10.82;4.32;;;13.90;99.90;;;;;;2618826;54;20149;-74
2021/09/24 03:42:43;;;;;;;14.65;4.28;;;13.90;99.90;;;;;;2619026;54;20145;-73
2021/09/24 03:45:12;;;;;;;9.52;3.63;;;13.90;99.90;;;;;;2618995;47;20694;-74
2021/09/24 03:47:41;;;;;;;9.43;3.10;;;13.90;99.90;;;;;;2618564;54;20184;-74
2021/09/24 03:50:13;;;;;;;13.38;4.22;;;13.80;99.90;;;;;;2619125;47;20256;-73
2021/09/24 03:52:42;;;;;;;10.38;3.10;;;13.80;99.90;;;;;;2619215;47;20160;-74
2021/09/24 03:55:12;;;;;;;14.63;3.47;;;13.70;99.90;;;;;;2619042;47;20158;-74
2021/09/24 03:57:41;;;;;;;9.30;3.10;;;13.70;99.90;;;;;;2619434;47;20181;-73
2021/09/24 04:00:11;;;;;;;7.45;2.53;;;13.80;99.90;;;;;;2618878;47;20156;-74
2021/09/24 04:02:43;;;;;;;10.65;3.53;;;13.80;99.90;;;;;;2619038;47;20157;-74
2021/09/24 04:05:14;;;;;;;8.65;2.97;;;13.70;99.90;;;;;;2618707;54;20144;-74
2021/09/24 04:07:43;;;;;;;6.55;2.83;;;13.70;99.90;;;;;;2618680;54;20149;-74
2021/09/24 04:10:12;;;;;;;11.07;3.55;;;13.90;99.90;;;;;;2618294;47;20157;-74
2021/09/24 04:12:41;;;;;;;12.82;3.42;;;13.80;99.90;;;;;;2619821;54;20152;-73
2021/09/24 04:15:11;;;;;;;12.50;3.20;;;13.80;99.90;;;;;;2619757;54;20155;-74
2021/09/24 04:17:41;;;;;;;6.53;2.67;;;13.70;99.90;;;;;;2620934;39;20594;-74
2021/09/24 04:20:14;;;;;;;7.45;2.63;;;13.80;99.90;;;;;;2619726;47;20149;-74
2021/09/24 04:22:43;;;;;;;8.63;2.83;;;13.80;99.90;;;;;;2619705;54;20149;-74
2021/09/24 04:25:13;;;;;;;12.48;3.65;;;13.80;99.90;;;;;;2619864;54;20149;-74
2021/09/24 04:27:42;;;;;;;8.18;3.17;;;13.80;99.90;;;;;;2620017;47;20713;-74
2021/09/24 04:30:12;;;;;;;8.68;2.40;;;13.70;99.90;;;;;;2619114;54;20154;-74
2021/09/24 04:32:41;;;;;;;9.90;3.38;;;13.70;99.90;;;;;;2619745;47;20155;-73
2021/09/24 04:35:11;;;;;;;5.68;2.85;;;13.80;99.90;;;;;;2619683;54;20272;-74
2021/09/24 04:37:42;;;;;;;9.00;3.72;;;13.90;99.90;;;;;;2620096;54;20177;-74
2021/09/24 04:40:12;;;;;;;9.18;3.47;;;13.90;99.90;;;;;;2619714;54;20138;-74
2021/09/24 04:42:41;;;;;;;10.90;2.40;;;13.90;99.90;;;;;;2619661;54;20149;-74
2021/09/24 04:45:11;;;;;;;9.98;3.40;;;13.70;99.90;;;;;;2619732;39;20555;-74
2021/09/24 04:47:40;;;;;;;4.40;2.55;;;13.80;99.90;;;;;;2619451;47;20713;-74
2021/09/24 04:50:10;;;;;;;8.88;3.05;;;13.90;99.90;;;;;;2619645;54;20141;-74
2021/09/24 04:52:42;;;;;;;8.90;2.97;;;13.80;99.90;;;;;;2619580;54;20172;-74
2021/09/24 04:55:11;;;;;;;8.00;2.60;;;13.80;99.90;;;;;;2619624;47;20145;-74
2021/09/24 04:57:41;;;;;;;11.35;2.47;;;13.70;99.90;;;;;;2619648;54;20176;-74
2021/09/24 05:00:13;;;;;;;5.07;2.03;;;13.80;99.90;;;;;;2619731;47;20157;-74
2021/09/24 05:02:42;;;;;;;5.35;2.38;;;13.70;99.90;;;;;;2619857;47;20162;-73
2021/09/24 05:05:13;;;;;;;12.27;3.03;;;13.60;99.90;;;;;;2619524;39;20606;-74
2021/09/24 05:07:46;;;;;;;4.95;2.42;;;13.70;99.90;;;;;;2618595;39;20618;-73
2021/09/24 05:10:16;;;;;;;7.50;3.00;;;13.60;99.90;;;;;;2618070;31;20666;-73
2021/09/24 05:12:44;;;;;;;6.35;2.70;;;13.60;99.90;;;;;;2619031;47;20168;-73
2021/09/24 05:15:14;;;;;;;17.20;3.17;;;13.60;99.90;;;;;;2618722;47;20146;-73
2021/09/24 05:17:43;;;;;;;8.50;2.33;;;13.50;99.90;;;;;;2618745;54;20180;-73
2021/09/24 05:20:13;;;;;;;5.72;2.25;;;13.70;99.90;;;;;;2619180;46;20168;-73
2021/09/24 05:22:45;;;;;;;3.80;2.40;;;13.60;99.90;;;;;;2618256;54;20191;-72
2021/09/24 05:25:15;;;;;;;5.93;2.92;;;13.50;99.90;;;;;;2618663;47;20145;-72
2021/09/24 05:27:43;;;;;;;8.40;2.42;;;13.50;99.90;;;;;;2619861;39;20563;-73
2021/09/24 05:30:13;;;;;;;7.25;2.40;;;13.60;99.90;;;;;;2619216;49;20157;-72
2021/09/24 05:32:42;;;;;;;5.57;3.40;;;13.70;99.90;;;;;;2618481;47;20153;-73
2021/09/24 05:35:14;;;;;;;7.18;2.75;;;13.80;99.90;;;;;;2618463;54;20153;-72
2021/09/24 05:37:45;;;;;;;12.75;3.00;;;13.90;99.90;;;;;;2618593;47;20177;-73
2021/09/24 05:40:16;;;;;;;7.45;2.92;;;13.90;99.90;;;;;;2618544;54;20157;-73
2021/09/24 05:42:45;;;;;;;5.55;2.58;;;13.90;99.90;;;;;;2618784;54;20987;-72
2021/09/24 05:45:14;;;;;;;11.00;3.28;;;14.00;99.90;;;;;;2618588;47;20168;-72
2021/09/24 05:47:44;;;;;;;8.15;3.53;;;14.00;99.90;;;;;;2618559;54;20706;-70
2021/09/24 05:50:15;;;;;;;4.35;2.63;;;14.00;99.90;;;;;;2618186;54;20292;-72
2021/09/24 05:52:49;;;;;;;10.68;2.78;;;14.10;99.90;;;;;;2617953;54;20150;-72
2021/09/24 05:55:19;;;;;;;10.30;4.35;;;14.20;99.90;;;;;;2618456;54;20140;-73
2021/09/24 05:57:49;;;;;;;4.10;2.58;;;14.30;99.90;;;;;;2618348;47;20698;-72
2021/09/24 06:00:20;;;;;;;7.88;2.60;;;14.30;99.90;;;;;;2618297;47;20154;-73
2021/09/24 06:02:51;;;;;;;6.40;2.92;;;14.30;99.90;;;;;;2618553;54;20958;-72
2021/09/24 06:05:20;;;;;;;9.00;2.70;;;14.40;99.90;;;;;;2617917;47;20157;-73
2021/09/24 06:07:52;;;;;;;7.43;2.30;;;14.50;99.90;;;;;;2618639;47;20185;-73
2021/09/24 06:10:21;;;;;;;8.45;2.92;;;14.60;99.90;;;;;;2618507;51;20161;-74
2021/09/24 06:12:51;;;;;;;4.68;2.22;;;14.70;99.90;;;;;;2618577;47;20153;-73
2021/09/24 06:15:23;;;;;;;8.40;2.65;;;14.80;99.90;;;;;;2617878;47;20164;-73
2021/09/24 06:17:53;;;;;;;2.92;2.53;;;14.70;99.90;;;;;;2618514;47;20315;-73
2021/09/24 06:20:22;;;;;;;7.53;2.63;;;14.80;99.90;;;;;;2618262;54;20702;-72
2021/09/24 06:22:54;;;;;;;8.40;2.50;;;14.80;99.90;;;;;;2618278;54;20157;-73
2021/09/24 06:25:23;;;;;;;5.28;2.92;;;14.80;99.90;;;;;;2618302;54;20160;-73
2021/09/24 06:27:52;;;;;;;7.65;2.72;;;15.00;99.90;;;;;;2617726;47;20169;-72
2021/09/24 06:30:23;;;;;;;6.07;3.10;;;15.10;99.90;;;;;;2619229;54;20161;-73
2021/09/24 06:32:52;;;;;;;9.70;3.35;;;15.00;99.90;;;;;;2618840;47;20157;-72
2021/09/24 06:35:23;;;;;;;9.20;2.38;;;15.00;99.90;;;;;;2619194;39;20246;-74
2021/09/24 06:37:54;;;;;;;6.68;2.55;;;15.00;99.90;;;;;;2618768;54;20710;-73
2021/09/24 06:40:23;;;;;;;11.00;3.72;;;15.10;99.90;;;;;;2618573;54;20153;-73
2021/09/24 06:42:54;;;;;;;7.43;2.45;;;15.20;99.90;;;;;;2618456;47;20157;-73
2021/09/24 06:45:23;;;;;;;7.88;2.75;;;15.20;99.90;;;;;;2619582;47;20261;-73
2021/09/24 06:47:52;;;;;;;5.47;2.90;;;15.10;99.90;;;;;;2619558;47;20754;-74
2021/09/24 06:50:21;;;;;;;7.80;2.50;;;15.20;99.90;;;;;;2618974;39;20585;-74
2021/09/24 06:52:50;;;;;;;12.50;4.07;;;15.30;99.90;;;;;;2618829;54;20161;-73
2021/09/24 06:55:25;;;;;;;7.93;2.63;;;15.20;99.90;;;;;;2618668;47;20146;-74
2021/09/24 06:57:54;;;;;;;5.80;3.15;;;15.40;99.90;;;;;;2617435;47;20168;-73
2021/09/24 07:00:24;;;;;;;7.53;4.00;;;15.40;99.90;;;;;;2618126;54;20157;-73
2021/09/24 07:02:52;;;;;;;4.20;2.75;;;15.40;99.90;;;;;;2619379;54;20723;-74
2021/09/24 07:05:22;;;;;;;14.55;4.13;;;15.50;99.90;;;;;;2618573;50;20161;-73
2021/09/24 07:07:51;;;;;;;6.78;2.95;;;15.40;99.90;;;;;;2619140;47;20180;-74
2021/09/24 07:10:22;;;;;;;11.63;3.45;;;15.50;99.90;;;;;;2618754;54;20261;-74
2021/09/24 07:12:51;;;;;;;7.32;3.55;;;15.50;99.90;;;;;;2618376;54;20154;-74
2021/09/24 07:15:20;;;;;;;9.30;4.05;;;15.60;99.90;;;;;;2618651;47;20170;-75
2021/09/24 07:17:49;;;;;;;8.88;3.35;;;15.60;99.90;;;;;;2618513;47;20171;-73
2021/09/24 07:20:18;;;;;;;11.80;3.47;;;15.70;99.90;;;;;;2621913;47;20157;-73
2021/09/24 07:22:48;;;;;;;8.02;3.55;;;15.70;99.90;;;;;;2624874;47;20733;-73
2021/09/24 07:25:17;;;;;;;7.57;3.22;;;15.70;99.90;;;;;;2620364;47;20345;-74
2021/09/24 07:27:48;;;;;;;7.28;3.88;;;15.70;99.90;;;;;;2619316;54;20307;-73
2021/09/24 07:30:17;;;;;;;10.43;2.90;;;15.70;99.90;;;;;;2618750;54;20153;-74
2021/09/24 07:32:46;;;;;;;6.68;3.50;;;15.80;99.90;;;;;;2621829;47;20154;-74
2021/09/24 07:35:15;;;;;;;15.30;4.45;;;15.80;99.90;;;;;;2622152;54;20142;-76
2021/09/24 07:37:44;;;;;;;6.28;2.92;;;15.80;99.90;;;;;;2629236;47;20185;-77
2021/09/24 07:40:15;;;;;;;10.57;3.28;;;15.80;99.90;;;;;;2628916;47;20152;-77
2021/09/24 07:42:44;;;;;;;8.88;3.45;;;15.90;99.90;;;;;;2629607;39;20675;-76
2021/09/24 07:45:16;;;;;;;8.77;3.47;;;15.90;99.90;;;;;;2629282;54;20222;-75
2021/09/24 07:47:45;;;;;;;6.05;3.33;;;16.00;99.90;;;;;;2629733;54;20216;-74
2021/09/24 07:50:14;;;;;;;7.65;3.30;;;15.90;99.90;;;;;;2619896;54;20168;-73
2021/09/24 07:52:44;;;;;;;8.15;3.35;;;15.90;99.90;;;;;;2618812;47;20153;-74
2021/09/24 07:55:14;;;;;;;6.57;3.28;;;15.90;99.90;;;;;;2618788;46;20173;-73
2021/09/24 07:57:44;;;;;;;10.68;3.70;;;15.90;99.90;;;;;;2618687;54;20177;-72
2021/09/24 08:00:16;;;;;;;6.32;3.45;;;16.00;99.90;;;;;;2618792;54;20168;-73
2021/09/24 08:02:45;;;;;;;6.22;2.88;;;15.90;99.90;;;;;;2618977;39;20597;-73
2021/09/24 08:05:13;;;;;;;9.00;2.75;;;16.00;99.90;;;;;;2618607;54;20140;-73
2021/09/24 08:07:42;;;;;;;8.77;2.80;;;16.10;99.90;;;;;;2619097;47;20180;-74
2021/09/24 08:10:12;;;;;;;5.63;2.63;;;16.10;99.90;;;;;;2619097;54;20145;-72
2021/09/24 08:12:41;;;;;;;5.47;2.15;;;16.10;99.90;;;;;;2619083;54;20244;-74
2021/09/24 08:15:11;;;;;;;6.50;3.47;;;16.10;99.90;;;;;;2619641;39;20566;-73
2021/09/24 08:17:42;;;;;;;4.13;2.17;;;16.10;99.90;;;;;;2619097;54;20687;-72
2021/09/24 08:20:13;;;;;;;8.38;2.78;;;16.20;99.90;;;;;;2619137;54;20150;-74
2021/09/24 08:22:42;;;;;;;6.78;3.03;;;16.30;99.90;;;;;;2618344;39;20567;-72
2021/09/24 08:25:13;;;;;;;5.88;3.03;;;16.40;99.90;;;;;;2618799;47;20165;-72
2021/09/24 08:27:42;;;;;;;7.05;2.45;;;16.40;99.90;;;;;;2618766;47;20199;-73
2021/09/24 08:30:14;;;;;;;6.55;2.47;;;16.40;99.90;;;;;;2618545;47;20288;-73
2021/09/24 08:32:46;;;;;;;5.72;2.35;;;16.40;99.90;;;;;;2618136;47;20157;-73
2021/09/24 08:35:16;;;;;;;6.90;2.70;;;16.50;99.90;;;;;;2618677;47;20241;-72
2021/09/24 08:37:47;;;;;;;8.32;2.70;;;16.40;99.90;;;;;;2618382;47;20181;-72
2021/09/24 08:40:17;;;;;;;8.30;3.03;;;16.50;99.90;;;;;;2619129;39;20601;-74
2021/09/24 08:42:47;;;;;;;5.60;2.15;;;16.50;99.90;;;;;;2619838;54;20156;-73
2021/09/24 08:45:23;;;;;;;4.07;2.03;;;16.50;99.90;;;;;;2619252;54;20144;-73
2021/09/24 08:47:55;;;;;;;3.10;2.10;;;16.50;99.90;;;;;;2627426;54;20149;-73
2021/09/24 08:50:25;;;;;;;5.15;2.13;;;16.40;99.90;;;;;;2619202;54;20153;-73
2021/09/24 08:52:55;;;;;;;8.40;2.63;;;16.50;99.90;;;;;;2618815;47;20165;-72
2021/09/24 08:55:24;;;;;;;5.85;2.63;;;16.60;99.90;;;;;;2619756;47;20169;-73
2021/09/24 08:57:53;;;;;;;5.75;2.47;;;16.60;99.90;;;;;;2619050;39;20573;-71
2021/09/24 09:00:23;;;;;;;9.30;2.67;;;16.60;99.90;;;;;;2618215;47;20148;-73
2021/09/24 09:03:08;;;;;;;4.65;2.30;;;16.80;99.90;;;;;;2618572;47;20153;-72
2021/09/24 09:05:39;;;;;;;4.55;2.40;;;17.00;99.90;;;;;;2619114;54;20153;-73
2021/09/24 09:08:11;;;;;;;5.80;2.38;;;17.10;99.90;;;;;;2618665;47;20256;-73
2021/09/24 09:10:43;;;;;;;5.70;2.65;;;17.10;99.90;;;;;;2619304;47;20153;-72
2021/09/24 09:13:13;;;;;;;5.78;3.22;;;17.20;99.90;;;;;;2618960;54;20134;-71
2021/09/24 09:15:43;;;;;;;8.70;3.17;;;17.30;99.90;;;;;;2619040;47;20197;-71
2021/09/24 09:18:20;;;;;;;6.93;2.25;;;17.50;99.90;;;;;;2619028;47;20737;-72
2021/09/24 09:20:50;;;;;;;4.53;2.40;;;17.40;99.90;;;;;;2619185;47;20153;-73
2021/09/24 09:23:21;;;;;;;5.47;2.30;;;17.60;99.90;;;;;;2619270;47;20153;-74
2021/09/24 09:25:52;;;;;;;3.85;1.90;;;17.80;99.90;;;;;;2618637;54;20707;-73
2021/09/24 09:28:31;;;;;;;6.93;2.67;;;17.90;99.90;;;;;;2619056;47;20179;-74
2021/09/24 09:31:00;;;;;;;5.13;2.80;;;18.00;99.90;;;;;;2619015;47;20698;-74
2021/09/24 09:33:37;;;;;;;4.82;2.13;;;18.10;99.90;;;;;;2627255;54;20172;-74
2021/09/24 09:36:06;;;;;;;6.43;2.60;;;18.20;99.90;;;;;;2627450;54;20161;-75
2021/09/24 09:38:40;;;;;;;5.60;2.70;;;18.20;99.90;;;;;;2625758;46;20185;-73
2021/09/24 09:41:11;;;;;;;6.97;2.63;;;18.20;99.90;;;;;;2625439;54;20196;-75
2021/09/24 09:43:42;;;;;;;7.07;2.50;;;18.30;99.90;;;;;;2627622;46;20773;-75
2021/09/24 09:46:13;;;;;;;5.35;2.03;;;18.50;99.90;;;;;;2628229;47;20157;-73
2021/09/24 09:48:46;;;;;;;3.63;2.50;;;18.50;99.90;;;;;;2618708;54;20184;-74
2021/09/24 09:51:23;;;;;;;6.80;2.70;;;18.40;99.90;;;;;;2618463;47;20142;-72
2021/09/24 09:53:52;;;;;;;8.02;2.40;;;18.20;99.90;;;;;;2618705;46;20168;-73
2021/09/24 09:56:21;;;;;;;7.10;3.20;;;18.20;99.90;;;;;;2618465;39;20462;-73
2021/09/24 09:58:50;;;;;;;7.10;2.83;;;18.30;99.90;;;;;;2618970;54;20203;-74
2021/09/24 10:01:20;;;;;;;6.10;2.78;;;18.40;99.90;;;;;;2619019;46;20161;-74
2021/09/24 10:03:55;;;;;;;11.30;3.20;;;18.50;99.90;;;;;;2618286;54;20152;-73
2021/09/24 10:06:26;;;;;;;6.50;3.58;;;18.50;99.90;;;;;;2618401;47;20176;-72
2021/09/24 10:08:57;;;;;;;6.05;2.80;;;18.60;99.90;;;;;;2617808;54;20180;-73
2021/09/24 10:11:32;;;;;;;5.55;2.50;;;18.70;99.90;;;;;;2625834;54;20212;-79
2021/09/24 10:14:03;;;;;;;10.13;3.42;;;18.50;99.90;;;;;;2622176;54;20159;-73
2021/09/24 10:16:34;;;;;;;5.28;3.13;;;18.50;99.90;;;;;;2618765;47;20157;-73
2021/09/24 10:19:07;;;;;;;5.63;2.78;;;18.70;99.90;;;;;;2618143;47;20145;-73
2021/09/24 10:21:36;;;;;;;4.75;3.15;;;19.00;99.90;;;;;;2618268;54;20142;-72
2021/09/24 10:24:06;;;;;;;5.85;3.05;;;19.10;99.90;;;;;;2618062;46;20150;-74
2021/09/24 10:26:39;;;;;;;5.93;3.13;;;19.20;99.90;;;;;;2620386;47;20165;-73
2021/09/24 10:29:10;;;;;;;5.28;3.80;;;19.20;99.90;;;;;;2619775;47;20173;-73
2021/09/24 10:31:42;;;;;;;5.60;4.45;;;19.30;99.90;;;;;;2619154;47;20149;-74
2021/09/24 10:34:13;;;;;;;9.18;5.25;;;19.30;99.90;;;;;;2618408;54;20150;-70
2021/09/24 10:36:48;;;;;;;7.95;5.20;;;19.20;99.90;;;;;;2618724;39;20568;-73
2021/09/24 10:39:47;;;;;;;4.95;4.55;;;19.10;99.90;;;;;;2618532;47;20141;-73
2021/09/24 10:42:43;;;;;;;8.60;6.18;;;19.10;99.90;;;;;;2617171;46;20158;-71
2021/09/24 10:45:21;;;;;;;10.15;6.47;;;19.30;99.90;;;;;;2618559;39;20579;-72
2021/09/24 10:48:00;;;;;;;7.65;6.20;;;19.10;99.90;;;;;;2618590;47;20738;-74
2021/09/24 10:51:02;;;;;;;5.25;4.75;;;19.20;99.90;;;;;;2622764;47;20160;-73
2021/09/24 10:53:43;;;;;;;8.95;5.97;;;19.40;99.90;;;;;;2619243;54;20183;-71
2021/09/24 10:56:28;;;;;;;7.25;5.95;;;19.60;99.90;;;;;;2617766;47;20157;-73
2021/09/24 10:58:58;;;;;;;8.68;6.30;;;20.20;99.90;;;;;;2617920;47;20153;-72
2021/09/24 11:01:36;;;;;;;11.55;8.20;;;20.20;99.90;;;;;;2617933;47;20679;-73
2021/09/24 11:04:14;;;;;;;9.68;7.50;;;20.50;99.90;;;;;;2617611;47;20619;-71
2021/09/24 11:06:45;;;;;;;11.90;7.22;;;20.20;99.90;;;;;;2617909;47;20145;-73
2021/09/24 11:09:18;;;;;;;10.30;7.15;;;20.00;99.90;;;;;;2622234;54;20758;-76
2021/09/24 11:11:50;;;;;;;9.98;7.00;;;19.80;99.90;;;;;;2624165;31;20552;-74
2021/09/24 11:14:31;;;;;;;8.68;7.13;;;19.90;99.90;;;;;;2622065;54;20165;-74
2021/09/24 11:17:01;;;;;;;8.85;6.72;;;19.80;99.90;;;;;;2621892;54;20715;-75
2021/09/24 11:19:36;;;;;;;13.38;6.95;;;20.00;99.90;;;;;;2621518;47;20766;-75
2021/09/24 11:22:18;;;;;;;8.85;7.05;;;20.10;99.90;;;;;;2621532;54;20247;-75
2021/09/24 11:25:06;;;;;;;9.00;7.30;;;20.00;99.90;;;;;;2621987;54;20695;-75
2021/09/24 11:27:37;;;;;;;8.90;7.82;;;20.10;99.90;;;;;;2624895;47;20196;-74
2021/09/24 11:30:21;;;;;;;8.57;7.13;;;20.20;99.90;;;;;;2623537;47;20157;-75
2021/09/24 11:32:52;;;;;;;10.65;7.78;;;20.00;99.90;;;;;;2623275;47;20695;-75
2021/09/24 11:35:31;;;;;;;11.15;7.88;;;19.90;99.90;;;;;;2623927;39;20756;-75
2021/09/24 11:38:18;;;;;;;8.02;7.22;;;19.90;99.90;;;;;;2623167;54;20161;-75
2021/09/24 11:40:54;;;;;;;11.60;9.90;;;19.80;99.90;;;;;;2622716;54;20144;-78
2021/09/24 11:43:28;;;;;;;10.63;8.85;;;19.80;99.90;;;;;;2623193;54;20171;-75
2021/09/24 11:45:58;;;;;;;10.57;9.50;;;19.80;99.90;;;;;;2622651;54;20137;-74
2021/09/24 11:48:33;;;;;;;12.82;10.68;;;19.80;99.90;;;;;;2623311;47;20251;-75
2021/09/24 11:51:17;;;;;;;12.20;10.90;;;19.80;99.90;;;;;;2621671;47;20759;-74
2021/09/24 11:53:51;;;;;;;14.27;12.80;;;19.70;99.90;;;;;;2620076;46;20244;-74
2021/09/24 11:56:34;;;;;;;19.38;14.48;;;19.80;99.90;;;;;;2620103;47;20152;-74
2021/09/24 11:59:05;;;;;;;19.77;13.75;;;19.60;99.90;;;;;;2620937;47;20177;-74
2021/09/24 12:01:35;;;;;;;17.75;15.95;;;19.60;99.90;;;;;;2620767;54;20156;-75
2021/09/24 12:04:05;;;;;;;22.25;15.57;;;19.70;99.90;;;;;;2619679;39;20676;-75
2021/09/24 12:06:37;;;;;;;18.50;16.27;;;19.70;99.90;;;;;;2620247;54;20152;-73
2021/09/24 12:09:08;;;;;;;22.83;18.05;;;19.50;99.90;;;;;;2621003;47;20181;-75
2021/09/24 12:11:47;;;;;;;23.42;19.13;;;19.50;99.90;;;;;;2620832;47;20161;-75
2021/09/24 12:14:20;;;;;;;27.58;19.50;;;19.50;99.90;;;;;;2620809;54;20157;-74
2021/09/24 12:16:50;;;;;;;24.98;21.20;;;19.40;99.90;;;;;;2622482;47;20151;-75
2021/09/24 17:10:23;;;;;;;30.50;27.33;;;19.20;99.90;;;;;;2618133;47;20239;-73
2021/09/24 17:12:54;;;;;;;29.17;26.30;;;18.20;99.90;;;;;;2618711;46;20165;-73
2021/09/24 17:15:25;;;;;;;28.17;25.27;;;18.20;99.90;;;;;;2618792;54;20157;-73
2021/09/24 17:17:55;;;;;;;23.90;21.50;;;18.20;99.90;;;;;;2617618;47;20280;-74
2021/09/24 17:20:26;;;;;;;27.85;24.90;;;18.20;99.90;;;;;;2618524;54;20668;-74
2021/09/24 17:22:55;;;;;;;29.20;24.92;;;18.20;99.90;;;;;;2619548;39;20562;-73
2021/09/24 17:25:29;;;;;;;27.75;24.85;;;18.20;99.90;;;;;;2619264;54;20148;-73
2021/09/24 17:27:59;;;;;;;27.88;24.55;;;18.20;99.90;;;;;;2618857;47;20153;-74
2021/09/24 17:30:28;;;;;;;26.08;23.58;;;18.20;99.90;;;;;;2619133;54;20149;-74
2021/09/24 17:32:57;;;;;;;26.83;24.15;;;18.20;99.90;;;;;;2618971;54;20160;-73
2021/09/24 17:35:27;;;;;;;26.73;24.20;;;18.20;99.90;;;;;;2619637;54;20237;-77
2021/09/24 17:37:56;;;;;;;24.58;22.20;;;18.20;99.90;;;;;;2618738;47;20149;-77
2021/09/24 17:40:28;;;;;;;25.13;22.65;;;18.30;99.90;;;;;;2618194;47;20161;-74
2021/09/24 17:42:58;;;;;;;21.33;19.13;;;18.20;99.90;;;;;;2620744;54;20157;-75
2021/09/24 17:45:27;;;;;;;21.80;19.70;;;18.20;99.90;;;;;;2624439;51;20771;-73
2021/09/24 17:47:56;;;;;;;23.70;21.35;;;18.20;99.90;;;;;;2618358;46;20180;-73
2021/09/24 17:50:26;;;;;;;22.75;20.63;;;18.20;99.90;;;;;;2617444;54;20165;-72
2021/09/24 17:52:56;;;;;;;22.58;20.33;;;18.30;99.90;;;;;;2617782;39;20645;-72